createdAt,value
2022-08-08T00:00:51.038Z,2.42
2022-08-08T00:02:59.520Z,2.53
2022-08-08T00:06:03.103Z,2.43
2022-08-08T00:09:01.895Z,2.03
2022-08-08T00:11:46.790Z,2.60
2022-08-08T00:15:01.162Z,2.17
2022-08-08T00:18:03.760Z,2.17
2022-08-08T00:20:54.097Z,3.33
2022-08-08T00:23:42.911Z,3.50
2022-08-08T00:26:26.378Z,3.90
2022-08-08T00:29:08.515Z,4.38
2022-08-08T00:32:28.791Z,5.78
2022-08-08T00:34:49.411Z,6.63
2022-08-08T00:38:01.330Z,7.03
2022-08-08T00:41:12.290Z,7.10
2022-08-08T00:43:40.259Z,7.60
2022-08-08T00:46:57.157Z,7.45
2022-08-08T00:49:58.865Z,7.55
2022-08-08T00:52:39.956Z,7.32
2022-08-08T00:55:36.015Z,7.75
2022-08-08T00:58:18.549Z,7.43
2022-08-08T01:01:03.743Z,6.57
2022-08-08T01:04:01.601Z,7.38
2022-08-08T01:07:00.221Z,7.65
2022-08-08T01:09:52.020Z,7.60
2022-08-08T01:12:54.603Z,8.20
2022-08-08T01:16:17.914Z,7.45
2022-08-08T01:19:12.440Z,7.72
2022-08-08T01:22:12.309Z,8.07
2022-08-08T01:24:57.555Z,7.70
2022-08-08T01:27:32.775Z,7.22
2022-08-08T01:30:38.458Z,8.73
2022-08-08T01:33:16.457Z,8.82
2022-08-08T01:36:28.913Z,8.13
2022-08-08T01:39:23.466Z,9.02
2022-08-08T01:42:15.820Z,9.38
2022-08-08T01:44:59.423Z,9.25
2022-08-08T01:48:23.362Z,9.35
2022-08-08T01:51:29.884Z,9.02
2022-08-08T01:55:26.945Z,8.30
2022-08-08T01:57:17.275Z,8.82
2022-08-08T02:00:02.384Z,8.50
2022-08-08T02:03:55.600Z,8.63
2022-08-08T02:06:32.859Z,7.97
2022-08-08T02:10:02.080Z,8.20
2022-08-08T02:12:37.159Z,10.02
2022-08-08T02:15:27.272Z,9.15
2022-08-08T02:18:30.607Z,9.95
2022-08-08T02:21:27.027Z,10.90
2022-08-08T02:24:08.043Z,9.82
2022-08-08T02:27:01.267Z,11.07
2022-08-08T02:29:51.796Z,11.27
2022-08-08T02:32:52.492Z,11.52
2022-08-08T02:36:04.924Z,11.07
2022-08-08T02:38:48.973Z,11.52
2022-08-08T02:42:05.602Z,12.02
2022-08-08T02:45:18.671Z,11.38
2022-08-08T02:48:32.449Z,11.75
2022-08-08T02:51:30.053Z,11.88
2022-08-08T02:54:16.973Z,10.73
2022-08-08T02:57:29.382Z,11.80
2022-08-08T03:00:31.007Z,11.40
2022-08-08T03:05:00.188Z,11.70
2022-08-08T03:06:52.591Z,13.15
2022-08-08T03:09:57.071Z,12.10
2022-08-08T03:12:36.552Z,12.18
2022-08-08T03:16:01.305Z,13.02
2022-08-08T03:18:59.763Z,12.82
2022-08-08T03:24:20.069Z,13.77
2022-08-08T03:26:52.005Z,14.60
2022-08-08T03:29:55.246Z,14.20
2022-08-08T03:32:37.618Z,14.23
2022-08-08T03:35:10.530Z,14.07
2022-08-08T03:37:59.436Z,13.15
2022-08-08T03:40:30.420Z,12.98
2022-08-08T03:43:16.701Z,12.43
2022-08-08T03:46:05.359Z,11.95
2022-08-08T03:49:56.253Z,11.98
2022-08-08T03:51:50.811Z,10.50
2022-08-08T03:54:15.680Z,10.27
2022-08-08T03:58:09.779Z,10.15
2022-08-08T04:00:02.596Z,9.85
2022-08-08T04:02:52.241Z,9.95
2022-08-08T04:05:28.115Z,9.77
2022-08-08T04:08:00.729Z,9.00
2022-08-08T04:10:32.064Z,8.43
2022-08-08T04:13:03.725Z,7.03
2022-08-08T04:15:38.572Z,7.65
2022-08-08T04:18:07.061Z,6.93
2022-08-08T04:20:44.041Z,7.30
2022-08-08T04:23:12.591Z,7.50
2022-08-08T04:25:42.627Z,7.47
2022-08-08T04:28:37.227Z,7.70
2022-08-08T04:30:58.218Z,7.78
2022-08-08T04:33:28.416Z,8.60
2022-08-08T04:36:07.244Z,8.68
2022-08-08T04:38:34.206Z,7.78
2022-08-08T04:41:02.492Z,7.13
2022-08-08T04:43:31.958Z,6.60
2022-08-08T04:46:18.616Z,7.07
2022-08-08T04:48:47.712Z,6.85
2022-08-08T04:51:17.478Z,7.07
2022-08-08T04:54:38.952Z,7.00
2022-08-08T04:56:42.681Z,6.57
2022-08-08T04:59:11.545Z,7.07
2022-08-08T05:01:48.012Z,6.60
2022-08-08T05:04:17.618Z,6.72
2022-08-08T05:06:45.503Z,5.97
2022-08-08T05:09:12.859Z,6.00
2022-08-08T05:11:47.674Z,6.38
2022-08-08T05:14:19.782Z,5.90
2022-08-08T05:17:00.519Z,5.07
2022-08-08T05:20:09.243Z,5.28
2022-08-08T05:22:28.356Z,5.30
2022-08-08T05:24:58.383Z,4.80
2022-08-08T05:27:25.440Z,4.57
2022-08-08T05:29:53.404Z,5.15
2022-08-08T05:32:27.381Z,5.15
2022-08-08T05:35:04.713Z,5.53
2022-08-08T05:37:52.762Z,5.22
2022-08-08T05:40:28.141Z,5.15
2022-08-08T05:43:39.920Z,6.15
2022-08-08T05:46:13.883Z,5.22
2022-08-08T05:48:43.967Z,5.40
2022-08-08T05:51:21.768Z,4.72
2022-08-08T05:54:25.470Z,5.28
2022-08-08T05:56:47.026Z,4.45
2022-08-08T05:59:59.552Z,4.15
2022-08-08T06:02:43.676Z,3.45
2022-08-08T06:05:34.596Z,3.97
2022-08-08T06:08:09.495Z,3.50
2022-08-08T06:10:49.585Z,3.75
2022-08-08T06:13:22.792Z,3.75
2022-08-08T06:15:54.911Z,3.25
2022-08-08T06:18:30.228Z,3.38
2022-08-08T06:21:03.648Z,3.20
2022-08-08T06:23:52.723Z,3.38
2022-08-08T06:26:45.430Z,3.22
2022-08-08T06:29:56.341Z,2.70
2022-08-08T06:32:29.642Z,2.80
2022-08-08T06:36:00.441Z,2.70
2022-08-08T06:38:02.123Z,3.00
2022-08-08T06:40:33.308Z,3.05
2022-08-08T06:43:09.945Z,2.92
2022-08-08T06:45:48.137Z,2.67
2022-08-08T06:48:17.354Z,2.92
2022-08-08T06:50:45.620Z,3.00
2022-08-08T06:53:20.108Z,2.58
2022-08-08T06:56:02.646Z,2.78
2022-08-08T06:58:34.033Z,3.22
2022-08-08T07:01:52.588Z,2.92
2022-08-08T07:04:39.823Z,2.63
2022-08-08T07:07:09.633Z,3.13
2022-08-08T07:09:59.271Z,2.40
2022-08-08T07:12:37.409Z,2.55
2022-08-08T07:15:23.108Z,2.53
2022-08-08T07:18:35.410Z,2.75
2022-08-08T07:20:57.419Z,2.73
2022-08-08T07:24:01.056Z,2.63
2022-08-08T07:26:29.128Z,2.72
2022-08-08T07:29:05.646Z,2.45
2022-08-08T07:31:36.095Z,2.72
2022-08-08T07:34:09.211Z,2.72
2022-08-08T07:36:48.273Z,2.60
2022-08-08T07:39:29.561Z,2.42
2022-08-08T07:42:04.818Z,2.17
2022-08-08T07:44:40.642Z,2.75
2022-08-08T07:47:12.240Z,2.83
2022-08-08T07:49:41.773Z,2.35
2022-08-08T07:52:26.733Z,2.50
2022-08-08T07:55:05.426Z,2.42
2022-08-08T07:57:48.652Z,2.45
2022-08-08T08:00:19.031Z,2.80
2022-08-08T08:03:08.668Z,2.63
2022-08-08T08:05:50.783Z,2.60
2022-08-08T08:08:32.246Z,2.35
2022-08-08T08:11:00.046Z,2.50
2022-08-08T08:13:42.935Z,2.40
2022-08-08T08:16:26.841Z,2.60
2022-08-08T08:19:00.704Z,2.20
2022-08-08T08:21:52.526Z,2.70
2022-08-08T08:24:46.715Z,2.63
2022-08-08T08:27:17.773Z,2.92
2022-08-08T08:29:51.951Z,2.70
2022-08-08T08:32:31.693Z,2.50
2022-08-08T08:35:05.401Z,2.60
2022-08-08T08:37:52.923Z,2.97
2022-08-08T08:40:22.117Z,3.13
2022-08-08T08:42:50.643Z,2.92
2022-08-08T08:45:23.113Z,3.25
2022-08-08T08:47:58.624Z,2.80
2022-08-08T08:50:35.158Z,3.22
2022-08-08T08:53:27.637Z,3.10
2022-08-08T08:56:07.104Z,2.55
2022-08-08T08:58:49.855Z,2.58
2022-08-08T09:01:28.005Z,2.95
2022-08-08T09:04:00.490Z,2.67
2022-08-08T09:06:37.950Z,5.65
2022-08-08T09:09:26.112Z,3.85
2022-08-08T09:12:11.408Z,2.60
2022-08-08T09:14:45.186Z,2.88
2022-08-08T09:17:19.290Z,2.60
2022-08-08T09:22:02.795Z,3.10
2022-08-08T09:22:47.325Z,3.08
2022-08-08T09:25:15.615Z,2.75
2022-08-08T09:27:57.482Z,2.55
2022-08-08T09:30:29.853Z,2.92
2022-08-08T09:33:55.686Z,2.88
2022-08-08T09:35:49.219Z,2.88
2022-08-08T09:38:30.124Z,2.92
2022-08-08T09:41:06.314Z,3.00
2022-08-08T09:44:06.206Z,2.88
2022-08-08T09:46:35.117Z,2.97
2022-08-08T09:49:18.572Z,2.97
2022-08-08T09:52:06.189Z,2.85
2022-08-08T09:54:53.928Z,2.70
2022-08-08T09:57:28.498Z,2.67
2022-08-08T10:00:49.710Z,2.55
2022-08-08T10:03:05.190Z,2.75
2022-08-08T10:05:37.777Z,3.13
2022-08-08T10:08:10.003Z,3.13
2022-08-08T10:10:50.879Z,2.58
2022-08-08T10:13:32.219Z,3.22
2022-08-08T10:16:03.862Z,2.90
2022-08-08T10:18:36.682Z,3.00
2022-08-08T10:21:26.050Z,2.78
2022-08-08T10:24:12.159Z,2.70
2022-08-08T10:27:01.087Z,3.05
2022-08-08T10:29:59.271Z,2.90
2022-08-08T10:32:48.317Z,2.70
2022-08-08T10:36:20.806Z,2.80
2022-08-08T10:38:09.210Z,2.55
2022-08-08T10:40:42.647Z,2.60
2022-08-08T10:43:10.271Z,2.92
2022-08-08T10:45:57.203Z,3.10
2022-08-08T10:48:57.171Z,2.70
2022-08-08T10:51:31.369Z,2.75
2022-08-08T10:54:08.268Z,2.80
2022-08-08T10:56:43.273Z,2.83
2022-08-08T10:59:14.223Z,2.80
2022-08-08T11:01:49.422Z,2.45
2022-08-08T11:04:29.587Z,2.63
2022-08-08T11:07:00.949Z,3.00
2022-08-08T11:09:32.278Z,3.20
2022-08-08T11:12:05.354Z,2.50
2022-08-08T11:14:58.176Z,2.88
2022-08-08T11:17:58.405Z,2.85
2022-08-08T11:20:27.277Z,2.65
2022-08-08T11:22:56.823Z,2.90
2022-08-08T11:25:52.751Z,3.30
2022-08-08T11:28:23.754Z,2.78
2022-08-08T11:30:57.146Z,2.67
2022-08-08T11:33:52.887Z,3.10
2022-08-08T11:36:16.124Z,3.10
2022-08-08T11:38:55.226Z,2.78
2022-08-08T11:41:24.466Z,2.80
2022-08-08T11:43:54.282Z,2.72
2022-08-08T11:46:28.090Z,2.55
2022-08-08T11:48:58.025Z,2.85
2022-08-08T11:51:30.487Z,2.40
2022-08-08T11:54:27.066Z,2.60
2022-08-08T11:57:07.568Z,2.50
2022-08-08T12:00:01.178Z,2.50
2022-08-08T12:02:48.310Z,2.60
2022-08-08T12:05:18.247Z,2.58
2022-08-08T12:07:52.211Z,2.40
2022-08-08T12:10:23.006Z,2.78
2022-08-08T12:12:59.485Z,2.28
2022-08-08T12:15:39.878Z,2.10
2022-08-08T12:18:14.107Z,2.22
2022-08-08T12:20:43.133Z,2.33
2022-08-08T12:23:13.796Z,1.98
2022-08-08T12:25:56.784Z,1.83
2022-08-08T12:28:23.925Z,1.80
2022-08-08T12:30:51.090Z,2.13
2022-08-08T12:33:37.157Z,1.45
2022-08-08T12:36:16.406Z,1.80
2022-08-08T12:38:55.603Z,1.52
2022-08-08T12:41:35.400Z,1.98
2022-08-08T12:44:12.531Z,1.60
2022-08-08T12:46:39.436Z,1.30
2022-08-08T12:49:43.021Z,1.40
2022-08-08T12:52:00.543Z,1.70
2022-08-08T12:54:36.732Z,1.23
2022-08-08T12:57:17.252Z,1.30
2022-08-08T13:00:03.762Z,1.65
2022-08-08T13:02:51.498Z,1.75
2022-08-08T13:05:26.868Z,1.60
2022-08-08T13:08:16.707Z,1.30
2022-08-08T13:10:56.244Z,1.60
2022-08-08T13:13:35.142Z,1.27
2022-08-08T13:16:34.483Z,1.20
2022-08-08T13:19:09.314Z,1.42
2022-08-08T13:21:53.549Z,1.52
2022-08-08T13:24:42.343Z,1.65
2022-08-08T13:27:15.250Z,1.52
2022-08-08T13:29:53.236Z,1.70
2022-08-08T13:32:23.790Z,1.58
2022-08-08T13:34:57.764Z,1.58
2022-08-08T13:38:05.527Z,1.40
2022-08-08T13:40:17.795Z,1.60
2022-08-08T13:42:53.931Z,1.70
2022-08-08T13:45:23.979Z,1.83
2022-08-08T13:48:01.570Z,2.10
2022-08-08T13:50:43.168Z,1.50
2022-08-08T13:53:34.229Z,2.17
2022-08-08T13:56:07.166Z,1.73
2022-08-08T14:01:18.176Z,1.85
2022-08-08T14:03:55.494Z,1.92
2022-08-08T14:06:33.035Z,2.00
2022-08-08T14:09:24.566Z,1.85
2022-08-08T14:11:48.933Z,2.10
2022-08-08T14:14:20.705Z,2.03
2022-08-08T14:16:52.737Z,1.80
2022-08-08T14:19:55.557Z,1.88
2022-08-08T14:22:21.281Z,2.10
2022-08-08T14:24:50.410Z,2.55
2022-08-08T14:27:28.827Z,2.15
2022-08-08T14:30:01.289Z,2.25
2022-08-08T14:32:30.745Z,2.85
2022-08-08T14:35:08.284Z,2.55
2022-08-08T14:37:59.856Z,2.53
2022-08-08T14:40:29.540Z,3.17
2022-08-08T14:43:01.664Z,2.28
2022-08-08T14:46:03.137Z,2.17
2022-08-08T14:48:42.326Z,2.15
2022-08-08T14:51:25.422Z,1.75
2022-08-08T14:54:12.344Z,2.78
2022-08-08T14:56:41.198Z,2.72
2022-08-08T14:59:22.115Z,2.33
2022-08-08T15:01:58.534Z,1.80
2022-08-08T15:04:26.504Z,2.00
2022-08-08T15:06:53.588Z,2.17
2022-08-08T15:09:21.849Z,1.80
2022-08-08T15:11:53.375Z,2.42
2022-08-08T15:14:26.618Z,2.15
2022-08-08T15:16:55.110Z,2.03
2022-08-08T15:19:24.167Z,2.15
2022-08-08T15:21:55.294Z,2.25
2022-08-08T15:24:25.008Z,2.00
2022-08-08T15:26:58.792Z,2.00
2022-08-08T15:29:45.679Z,2.28
2022-08-08T15:32:20.936Z,2.25
2022-08-08T15:34:49.501Z,1.88
2022-08-08T15:37:17.355Z,1.92
2022-08-08T15:39:46.239Z,1.80
2022-08-08T15:42:31.997Z,2.28
2022-08-08T15:45:01.505Z,1.95
2022-08-08T15:47:31.988Z,2.30
2022-08-08T15:49:59.742Z,8.60
2022-08-08T15:52:27.805Z,33.08
2022-08-08T15:54:54.731Z,2.40
2022-08-08T15:57:23.169Z,1.77
2022-08-08T16:00:06.703Z,1.88
2022-08-08T16:02:50.478Z,2.03
2022-08-08T16:05:23.818Z,2.17
2022-08-08T16:07:53.844Z,2.20
2022-08-08T16:13:02.459Z,2.40
2022-08-08T16:13:32.164Z,2.30
2022-08-08T16:16:09.254Z,2.22
2022-08-08T16:18:43.688Z,2.67
2022-08-08T16:21:26.957Z,2.45
2022-08-08T16:23:55.713Z,2.08
2022-08-08T16:26:33.882Z,2.85
2022-08-08T16:29:08.136Z,2.65
2022-08-08T16:31:40.233Z,2.88
2022-08-08T16:34:08.899Z,2.33
2022-08-08T16:36:36.596Z,2.42
2022-08-08T16:39:09.627Z,2.40
2022-08-08T16:41:51.313Z,2.45
2022-08-08T16:44:28.125Z,2.58
2022-08-08T16:47:41.471Z,2.03
2022-08-08T16:50:15.720Z,2.50
2022-08-08T16:55:05.575Z,2.80
2022-08-08T16:55:55.436Z,3.00
2022-08-08T16:58:21.027Z,2.00
2022-08-08T17:00:48.783Z,2.25
2022-08-08T17:03:24.792Z,2.25
2022-08-08T17:06:02.643Z,2.45
2022-08-08T17:08:29.848Z,2.03
2022-08-08T17:10:58.663Z,2.45
2022-08-08T17:13:41.192Z,2.50
2022-08-08T17:16:17.782Z,1.95
2022-08-08T17:18:49.375Z,2.45
2022-08-08T17:21:18.303Z,2.40
2022-08-08T17:24:00.400Z,3.55
2022-08-08T17:26:29.658Z,3.00
2022-08-08T17:28:58.685Z,2.60
2022-08-08T17:31:44.388Z,2.75
2022-08-08T17:34:49.638Z,2.90
2022-08-08T17:37:03.940Z,2.90
2022-08-08T17:40:04.496Z,2.80
2022-08-08T17:42:23.904Z,3.17
2022-08-08T17:44:52.501Z,3.33
2022-08-08T17:47:23.986Z,3.05
2022-08-08T17:49:53.101Z,2.65
2022-08-08T17:52:28.599Z,3.03
2022-08-08T17:54:57.078Z,2.20
2022-08-08T17:57:24.878Z,2.65
2022-08-08T17:59:58.950Z,2.50
2022-08-08T18:02:31.339Z,3.03
2022-08-08T18:04:58.722Z,3.13
2022-08-08T18:08:15.536Z,2.80
2022-08-08T18:10:15.638Z,4.05
2022-08-08T18:12:45.874Z,3.20
2022-08-08T18:15:13.564Z,3.08
2022-08-08T18:18:09.276Z,3.10
2022-08-08T18:20:42.730Z,3.42
2022-08-08T18:23:15.501Z,2.95
2022-08-08T18:25:43.895Z,3.10
2022-08-08T18:28:13.151Z,2.80
2022-08-08T18:30:41.450Z,3.15
2022-08-08T18:33:36.574Z,3.22
2022-08-08T18:36:02.892Z,3.28
2022-08-08T18:38:32.385Z,3.45
2022-08-08T18:41:03.120Z,2.90
2022-08-08T18:43:37.845Z,3.15
2022-08-08T18:46:57.264Z,3.50
2022-08-08T18:48:58.082Z,3.10
2022-08-08T18:51:53.135Z,2.75
2022-08-08T18:54:21.883Z,3.20
2022-08-08T18:56:50.025Z,3.60
2022-08-08T18:59:17.370Z,3.20
2022-08-08T19:02:25.037Z,3.20
2022-08-08T19:04:32.218Z,3.78
2022-08-08T19:07:03.143Z,3.58
2022-08-08T19:09:49.585Z,3.95
2022-08-08T19:12:19.176Z,2.60
2022-08-08T19:14:46.559Z,2.40
2022-08-08T19:17:28.850Z,2.85
2022-08-08T19:20:03.111Z,3.03
2022-08-08T19:22:33.361Z,3.22
2022-08-08T19:26:00.953Z,2.67
2022-08-08T19:27:57.218Z,2.83
2022-08-08T19:30:28.138Z,2.88
2022-08-08T19:32:58.222Z,2.78
2022-08-08T19:35:45.300Z,3.13
2022-08-08T19:38:17.387Z,2.97
2022-08-08T19:40:55.784Z,3.13
2022-08-08T19:43:28.352Z,3.00
2022-08-08T19:45:58.603Z,3.45
2022-08-08T19:48:30.736Z,2.75
2022-08-08T19:51:01.599Z,3.03
2022-08-08T19:53:53.164Z,2.88
2022-08-08T19:56:25.874Z,2.88
2022-08-08T19:59:03.882Z,2.85
2022-08-08T20:01:59.800Z,3.03
2022-08-08T20:04:23.620Z,3.10
2022-08-08T20:06:50.989Z,2.63
2022-08-08T20:09:22.895Z,3.35
2022-08-08T20:11:50.810Z,3.03
2022-08-08T20:14:33.606Z,2.85
2022-08-08T20:17:02.115Z,2.80
2022-08-08T20:19:34.417Z,2.53
2022-08-08T20:22:26.500Z,2.63
2022-08-08T20:25:00.314Z,2.35
2022-08-08T20:27:43.850Z,2.20
2022-08-08T20:30:56.018Z,2.50
2022-08-08T20:33:01.610Z,2.63
2022-08-08T20:35:32.845Z,2.75
2022-08-08T20:38:15.758Z,3.10
2022-08-08T20:40:45.901Z,2.50
2022-08-08T20:43:23.050Z,2.72
2022-08-08T20:46:04.984Z,2.60
2022-08-08T20:48:32.644Z,2.70
2022-08-08T20:51:05.467Z,2.75
2022-08-08T20:53:59.937Z,2.15
2022-08-08T20:56:34.944Z,2.63
2022-08-08T20:59:06.118Z,2.97
2022-08-08T21:02:05.583Z,3.03
2022-08-08T21:04:21.331Z,2.78
2022-08-08T21:06:52.479Z,2.50
2022-08-08T21:09:21.659Z,2.50
2022-08-08T21:11:50.655Z,2.90
2022-08-08T21:14:30.280Z,2.67
2022-08-08T21:17:01.298Z,2.85
2022-08-08T21:19:33.917Z,2.60
2022-08-08T21:22:12.774Z,2.67
2022-08-08T21:24:42.052Z,3.63
2022-08-08T21:27:38.735Z,2.80
2022-08-08T21:30:10.943Z,3.17
2022-08-08T21:32:45.850Z,3.10
2022-08-08T21:36:14.351Z,3.05
2022-08-08T21:38:08.564Z,2.97
2022-08-08T21:40:56.355Z,2.85
2022-08-08T21:43:34.341Z,3.03
2022-08-08T21:48:08.145Z,3.75
2022-08-08T21:48:59.835Z,2.97
2022-08-08T21:54:18.674Z,2.45
2022-08-08T21:54:53.699Z,3.00
2022-08-08T21:57:06.716Z,2.60
2022-08-08T22:00:03.233Z,2.30
2022-08-08T22:02:23.298Z,2.55
2022-08-08T22:04:56.049Z,2.80
2022-08-08T22:07:34.736Z,2.50
2022-08-08T22:10:18.528Z,2.53
2022-08-08T22:13:17.767Z,3.20
2022-08-08T22:15:44.224Z,3.10
2022-08-08T22:18:27.544Z,3.15
2022-08-08T22:20:57.552Z,3.42
2022-08-08T22:23:25.472Z,3.00
2022-08-08T22:26:27.559Z,2.80
2022-08-08T22:29:03.990Z,2.90
2022-08-08T22:31:35.065Z,2.80
2022-08-08T22:34:13.331Z,3.33
2022-08-08T22:36:42.615Z,2.55
2022-08-08T22:39:11.840Z,2.88
2022-08-08T22:41:46.298Z,2.88
2022-08-08T22:44:16.457Z,2.60
2022-08-08T22:46:45.648Z,2.40
2022-08-08T22:49:17.884Z,2.47
2022-08-08T22:51:47.321Z,2.83
2022-08-08T22:54:30.925Z,2.70
2022-08-08T22:57:01.498Z,2.63
2022-08-08T22:59:35.798Z,2.60
2022-08-08T23:02:15.077Z,3.28
2022-08-08T23:05:02.052Z,3.47
2022-08-08T23:07:51.809Z,3.25
2022-08-08T23:10:21.452Z,3.10
2022-08-08T23:12:48.936Z,3.67
2022-08-08T23:16:40.483Z,3.65
2022-08-08T23:18:11.649Z,3.20
2022-08-08T23:20:43.437Z,4.00
2022-08-08T23:23:11.578Z,3.67
2022-08-08T23:25:45.206Z,3.58
2022-08-08T23:28:17.540Z,4.00
2022-08-08T23:30:45.899Z,3.58
2022-08-08T23:33:19.159Z,4.32
2022-08-08T23:35:59.012Z,4.32
2022-08-08T23:38:33.569Z,4.03
2022-08-08T23:41:00.423Z,3.63
2022-08-08T23:43:45.220Z,4.60
2022-08-08T23:49:04.913Z,4.20
2022-08-08T23:49:15.387Z,4.40
2022-08-08T23:52:05.380Z,4.45
2022-08-08T23:54:41.471Z,4.90
2022-08-08T23:57:26.458Z,4.50
